Flight Track Log - Related Links

Times and Time Zones

All times are in EDT time to prevent confusion due to time zone crossing. See the SEJ1022 flight status page for this flight to view local times or setup timezone preferences in your user account.


Time Position Orientation Groundspeed Altitude Reporting Facility
EDT Latitude Longitude Course Direction KTS MPH feet Rate Location/Type
Fri 07:54:00 AM 14.0498 79.4170 344° North  Level Estimated
Fri 07:55:00 AM 14.1194 79.3959 344° North  Level Estimated
Fri 07:56:00 AM 14.1890 79.3748 344° North  Level Estimated
Fri 07:57:00 AM 14.2586 79.3537 344° North  Level Estimated
Fri 07:58:00 AM 14.3282 79.3325 344° North  Level Estimated
Fri 07:59:00 AM 14.3979 79.3114 344° North  Level Estimated
Fri 08:00:00 AM 14.4675 79.2902 344° North  Level Estimated
Fri 08:01:00 AM 14.5371 79.2691 344° North  Level Estimated
Fri 08:02:00 AM 14.6067 79.2479 344° North  Level Estimated
Fri 08:03:00 AM 14.6763 79.2267 344° North  Level Estimated
Fri 08:04:00 AM 14.7459 79.2055 344° North  Level Estimated
Fri 08:05:00 AM 14.8155 79.1842 344° North  Level Estimated
Fri 08:06:00 AM 14.8851 79.1630 344° North  Level Estimated
Fri 08:07:00 AM 14.9547 79.1417 344° North  Level Estimated
Fri 08:08:00 AM 15.0243 79.1205 344° North  Level Estimated
Fri 08:09:00 AM 15.0939 79.0992 344° North  Level Estimated
Fri 08:10:00 AM 15.1635 79.0779 344° North  Level Estimated
Fri 08:11:00 AM 15.2331 79.0566 344° North  Level Estimated
Fri 08:12:00 AM 15.3027 79.0352 344° North  Level Estimated
Fri 08:13:00 AM 15.3723 79.0139 344° North  Level Estimated
Fri 08:14:00 AM 15.4419 78.9926 344° North  Level Estimated
Fri 08:15:00 AM 15.5114 78.9712 344° North  Level Estimated
Fri 08:16:00 AM 15.5810 78.9498 344° North  Level Estimated
Fri 08:17:00 AM 15.6506 78.9284 344° North  Level Estimated
Fri 08:18:00 AM 15.7202 78.9070 344° North  Level Estimated
Fri 08:19:00 AM 15.7898 78.8856 343° North  Level Estimated
Fri 08:20:00 AM 15.8593 78.8642 343° North  Level Estimated
Fri 08:21:00 AM 15.9289 78.8427 343° North  Level Estimated
Fri 08:22:00 AM 15.9985 78.8212 343° North  Level Estimated
Fri 08:23:00 AM 16.0846 78.7946 343° North  Level Estimated
Fri 08:24:00 AM 16.1707 78.7680 343° North  Level Estimated
Fri 08:25:00 AM 16.2568 78.7413 343° North  Level Estimated
Fri 08:26:00 AM 16.3430 78.7147 343° North  Level Estimated
Fri 08:27:00 AM 16.4291 78.6880 343° North  Level Estimated
Fri 08:28:00 AM 16.5152 78.6613 343° North  Level Estimated
Fri 08:29:00 AM 16.6013 78.6345 343° North  Level Estimated
Fri 08:30:00 AM 16.6874 78.6078 343° North  Level Estimated
Fri 08:31:00 AM 16.7735 78.5810 343° North  Level Estimated
Fri 08:32:00 AM 16.8596 78.5542 343° North  Level Estimated
Fri 08:33:00 AM 16.9457 78.5273 343° North  Level Estimated
Fri 08:34:00 AM 17.0318 78.5005 343° North  Level Estimated
Fri 08:35:00 AM 17.1179 78.4736 343° North  Level Estimated
Fri 08:36:00 AM 17.2040 78.4466 343° North  Level Estimated
Fri 08:37:00 AM 17.2540 78.4310 343° North  Level Estimated
Fri 08:38:00 AM 17.2540 78.4310 North  Level Estimated
Fri 08:39:00 AM 17.2540 78.4310 North  Level Estimated
Fri 08:40:00 AM 17.2540 78.4310 North  Level Estimated
Fri 08:41:00 AM 17.2540 78.4310 North  Level Estimated
Fri 08:42:00 AM 17.2540 78.4310 North  Level Estimated
Fri 08:43:00 AM 17.2540 78.4310 North  Level Estimated
Fri 08:44:00 AM 17.2540 78.4310 North  Level Estimated
Fri 08:45:00 AM 17.2540 78.4310 North  Level Estimated
Fri 08:46:00 AM 17.2540 78.4310 North  Level Estimated

Login

Don't have an account? Register now (free) for customized features, flight alerts, and more!